createdAt,value
2023-02-08T00:00:04.724Z,43.60
2023-02-08T00:02:31.316Z,44.53
2023-02-08T00:04:58.001Z,45.20
2023-02-08T00:07:25.820Z,45.10
2023-02-08T00:09:52.337Z,44.07
2023-02-08T00:12:18.852Z,45.83
2023-02-08T00:14:45.374Z,42.17
2023-02-08T00:17:11.825Z,42.07
2023-02-08T00:19:38.341Z,43.77
2023-02-08T00:22:04.825Z,43.43
2023-02-08T00:24:31.333Z,43.37
2023-02-08T00:26:57.799Z,43.43
2023-02-08T00:29:24.331Z,40.57
2023-02-08T00:31:50.969Z,42.17
2023-02-08T00:34:17.443Z,42.37
2023-02-08T00:36:43.964Z,40.83
2023-02-08T00:39:10.532Z,41.13
2023-02-08T00:41:37.031Z,40.07
2023-02-08T00:44:03.533Z,38.77
2023-02-08T00:46:30.077Z,38.40
2023-02-08T00:48:56.565Z,37.40
2023-02-08T00:51:23.126Z,36.27
2023-02-08T00:53:49.708Z,39.23
2023-02-08T00:56:16.342Z,40.47
2023-02-08T00:58:43.213Z,41.03
2023-02-08T01:01:10.024Z,40.73
2023-02-08T01:03:37.125Z,44.17
2023-02-08T01:06:04.268Z,44.23
2023-02-08T01:08:30.904Z,46.00
2023-02-08T01:11:07.669Z,46.43
2023-02-08T01:13:34.202Z,44.77
2023-02-08T01:16:11.103Z,43.97
2023-02-08T01:18:38.193Z,45.33
2023-02-08T01:21:05.928Z,42.67
2023-02-08T01:23:32.420Z,42.50
2023-02-08T01:25:58.942Z,41.43
2023-02-08T01:28:26.612Z,39.73
2023-02-08T01:30:53.133Z,41.27
2023-02-08T01:33:19.673Z,38.50
2023-02-08T01:35:46.184Z,38.00
2023-02-08T01:38:12.653Z,36.13
2023-02-08T01:40:39.460Z,35.93
2023-02-08T01:43:09.609Z,34.43
2023-02-08T01:45:36.164Z,33.73
2023-02-08T01:48:04.166Z,34.07
2023-02-08T01:50:32.736Z,32.73
2023-02-08T01:52:59.332Z,33.60
2023-02-08T01:55:26.660Z,34.10
2023-02-08T01:57:53.725Z,33.33
2023-02-08T02:00:23.846Z,33.27
2023-02-08T02:02:53.371Z,34.37
2023-02-08T02:05:24.244Z,31.67
2023-02-08T02:07:51.225Z,31.53
2023-02-08T02:10:34.020Z,33.37
2023-02-08T02:13:07.861Z,30.13
2023-02-08T02:15:34.452Z,31.07
2023-02-08T02:18:01.612Z,32.80
2023-02-08T02:20:50.830Z,30.53
2023-02-08T02:23:41.044Z,30.07
2023-02-08T02:26:22.953Z,31.23
2023-02-08T02:28:49.399Z,31.80
2023-02-08T02:31:36.837Z,31.00
2023-02-08T02:34:10.464Z,27.97
2023-02-08T02:36:43.829Z,30.67
2023-02-08T02:39:16.228Z,30.73
2023-02-08T02:42:04.507Z,30.47
2023-02-08T02:44:30.963Z,30.27
2023-02-08T02:47:18.924Z,29.57
2023-02-08T02:49:48.117Z,30.50
2023-02-08T02:52:23.720Z,29.97
2023-02-08T02:54:51.947Z,28.57
2023-02-08T02:57:22.455Z,28.17
2023-02-08T02:59:48.977Z,29.53
2023-02-08T03:02:15.469Z,28.53
2023-02-08T03:04:41.966Z,27.93
2023-02-08T03:07:16.405Z,27.90
2023-02-08T03:09:52.107Z,29.17
2023-02-08T03:12:26.018Z,29.57
2023-02-08T03:15:12.830Z,28.00
2023-02-08T03:17:42.854Z,28.97
2023-02-08T03:20:10.300Z,29.23
2023-02-08T03:22:39.806Z,29.63
2023-02-08T03:25:15.018Z,30.73
2023-02-08T03:27:50.639Z,30.57
2023-02-08T03:30:27.375Z,32.30
2023-02-08T03:33:01.558Z,30.33
2023-02-08T03:35:33.118Z,29.53
2023-02-08T03:38:00.824Z,30.90
2023-02-08T03:40:28.684Z,28.17
2023-02-08T03:42:56.126Z,31.10
2023-02-08T03:45:27.071Z,31.90
2023-02-08T03:47:53.853Z,31.07
2023-02-08T03:50:20.561Z,32.27
2023-02-08T03:52:47.190Z,29.87
2023-02-08T03:55:14.913Z,33.53
2023-02-08T03:57:55.626Z,30.50
2023-02-08T04:00:22.220Z,30.23
2023-02-08T04:02:51.416Z,30.53
2023-02-08T04:05:18.096Z,30.13
2023-02-08T04:07:44.570Z,32.07
2023-02-08T04:10:11.093Z,30.40
2023-02-08T04:12:37.693Z,31.13
2023-02-08T04:15:04.318Z,30.57
2023-02-08T04:17:30.958Z,32.93
2023-02-08T04:19:57.630Z,34.77
2023-02-08T04:22:24.183Z,31.00
2023-02-08T04:24:50.693Z,32.20
2023-02-08T04:27:17.177Z,33.43
2023-02-08T04:29:43.810Z,32.23
2023-02-08T04:32:11.855Z,35.10
2023-02-08T04:34:38.833Z,32.63
2023-02-08T04:37:05.539Z,34.57
2023-02-08T04:39:32.133Z,31.80
2023-02-08T04:41:58.646Z,32.73
2023-02-08T04:44:25.349Z,33.93
2023-02-08T04:46:51.988Z,33.27
2023-02-08T04:49:18.560Z,33.77
2023-02-08T04:51:45.090Z,33.03
2023-02-08T04:54:11.653Z,33.30
2023-02-08T04:56:38.689Z,34.37
2023-02-08T04:59:05.168Z,34.33
2023-02-08T05:01:31.742Z,32.77
2023-02-08T05:03:58.249Z,30.43
2023-02-08T05:06:24.857Z,30.43
2023-02-08T05:08:51.354Z,31.90
2023-02-08T05:11:21.286Z,32.63
2023-02-08T05:13:48.045Z,31.40
2023-02-08T05:16:14.608Z,30.63
2023-02-08T05:18:41.280Z,30.30
2023-02-08T05:21:07.789Z,30.23
2023-02-08T05:23:34.519Z,28.20
2023-02-08T05:26:01.036Z,29.30
2023-02-08T05:28:27.580Z,28.33
2023-02-08T05:30:54.194Z,29.83
2023-02-08T05:33:20.712Z,28.87
2023-02-08T05:35:47.249Z,29.00
2023-02-08T05:38:13.749Z,28.87
2023-02-08T05:40:40.522Z,27.70
2023-02-08T05:43:07.474Z,28.07
2023-02-08T05:45:33.973Z,27.33
2023-02-08T05:48:00.518Z,29.90
2023-02-08T05:50:27.776Z,27.20
2023-02-08T05:52:54.332Z,28.13
2023-02-08T05:55:20.857Z,27.63
2023-02-08T05:57:47.336Z,27.10
2023-02-08T06:00:14.239Z,27.47
2023-02-08T06:02:40.736Z,25.73
2023-02-08T06:05:07.551Z,26.43
2023-02-08T06:07:34.025Z,27.27
2023-02-08T06:10:00.553Z,29.10
2023-02-08T06:12:27.056Z,27.63
2023-02-08T06:14:53.554Z,28.83
2023-02-08T06:17:20.018Z,26.77
2023-02-08T06:19:46.540Z,26.43
2023-02-08T06:22:13.057Z,27.23
2023-02-08T06:24:39.525Z,27.80
2023-02-08T06:27:06.327Z,28.37
2023-02-08T06:29:32.805Z,28.10
2023-02-08T06:31:59.407Z,29.17
2023-02-08T06:34:25.973Z,28.83
2023-02-08T06:36:52.934Z,29.27
2023-02-08T06:39:19.437Z,26.43
2023-02-08T06:41:45.978Z,29.00
2023-02-08T06:44:12.673Z,26.73
2023-02-08T06:46:39.339Z,27.20
2023-02-08T06:49:05.910Z,29.43
2023-02-08T06:51:32.401Z,29.73
2023-02-08T06:53:58.928Z,29.40
2023-02-08T06:56:25.488Z,28.50
2023-02-08T06:58:52.100Z,28.93
2023-02-08T07:01:18.633Z,29.17
2023-02-08T07:03:45.198Z,31.10
2023-02-08T07:06:12.727Z,31.50
2023-02-08T07:08:39.304Z,32.20
2023-02-08T07:11:06.802Z,32.10
2023-02-08T07:13:33.308Z,32.70
2023-02-08T07:15:59.899Z,32.53
2023-02-08T07:18:26.444Z,33.77
2023-02-08T07:20:53.154Z,31.43
2023-02-08T07:23:19.648Z,29.77
2023-02-08T07:25:46.176Z,29.43
2023-02-08T07:28:12.721Z,29.87
2023-02-08T07:30:39.542Z,29.47
2023-02-08T07:33:06.206Z,26.07
2023-02-08T07:35:32.757Z,25.07
2023-02-08T07:37:59.268Z,27.73
2023-02-08T07:40:25.935Z,25.17
2023-02-08T07:42:52.527Z,25.30
2023-02-08T07:45:19.030Z,25.97
2023-02-08T07:47:46.181Z,25.90
2023-02-08T07:50:12.708Z,26.37
2023-02-08T07:52:39.277Z,28.77
2023-02-08T07:55:05.878Z,27.80
2023-02-08T07:57:32.464Z,27.40
2023-02-08T07:59:59.008Z,26.90
2023-02-08T08:02:25.539Z,26.27
2023-02-08T08:04:54.249Z,28.00
2023-02-08T08:07:20.716Z,29.17
2023-02-08T08:09:47.247Z,24.40
2023-02-08T08:12:13.721Z,22.60
2023-02-08T08:14:40.209Z,24.20
2023-02-08T08:17:06.722Z,22.57
2023-02-08T08:19:33.239Z,22.97
2023-02-08T08:21:59.731Z,22.30
2023-02-08T08:24:26.231Z,20.07
2023-02-08T08:26:52.834Z,19.77
2023-02-08T08:29:19.382Z,17.13
2023-02-08T08:31:46.044Z,16.07
2023-02-08T08:34:12.657Z,16.57
2023-02-08T08:36:39.143Z,16.70
2023-02-08T08:39:05.767Z,15.83
2023-02-08T08:41:32.327Z,14.77
2023-02-08T08:43:58.846Z,15.10
2023-02-08T08:46:25.382Z,17.40
2023-02-08T08:48:52.558Z,14.93
2023-02-08T08:51:19.086Z,14.57
2023-02-08T08:53:45.593Z,13.30
2023-02-08T08:56:12.136Z,13.80
2023-02-08T08:58:38.623Z,14.00
2023-02-08T09:01:05.317Z,13.97
2023-02-08T09:03:31.992Z,12.23
2023-02-08T09:05:58.550Z,13.80
2023-02-08T09:08:25.031Z,15.07
2023-02-08T09:10:51.539Z,13.90
2023-02-08T09:13:19.953Z,14.73
2023-02-08T09:15:46.742Z,15.87
2023-02-08T09:18:13.344Z,15.10
2023-02-08T09:20:39.902Z,13.57
2023-02-08T09:23:06.654Z,11.73
2023-02-08T09:25:33.447Z,12.80
2023-02-08T09:28:00.082Z,13.73
2023-02-08T09:30:26.612Z,11.60
2023-02-08T09:32:53.112Z,12.47
2023-02-08T09:35:19.774Z,12.17
2023-02-08T09:37:46.329Z,12.20
2023-02-08T09:40:16.623Z,12.00
2023-02-08T09:42:43.779Z,12.43
2023-02-08T09:45:10.219Z,11.77
2023-02-08T09:47:37.194Z,12.67
2023-02-08T09:50:03.699Z,14.33
2023-02-08T09:52:40.853Z,14.07
2023-02-08T09:55:17.775Z,14.00
2023-02-08T09:57:44.298Z,16.27
2023-02-08T10:00:12.998Z,13.87
2023-02-08T10:02:39.499Z,14.23
2023-02-08T10:05:06.133Z,12.27
2023-02-08T10:07:32.829Z,13.13
2023-02-08T10:10:00.457Z,11.67
2023-02-08T10:12:33.192Z,12.77
2023-02-08T10:15:06.293Z,14.17
2023-02-08T10:17:42.156Z,13.93
2023-02-08T10:20:13.430Z,13.17
2023-02-08T10:22:58.905Z,12.53
2023-02-08T10:25:25.437Z,13.77
2023-02-08T10:28:10.483Z,15.03
2023-02-08T10:30:49.429Z,16.47
2023-02-08T10:33:22.525Z,15.43
2023-02-08T10:35:49.671Z,15.47
2023-02-08T10:38:16.176Z,14.73
2023-02-08T10:40:43.380Z,12.53
2023-02-08T10:43:19.396Z,12.47
2023-02-08T10:45:49.521Z,13.77
2023-02-08T10:48:17.741Z,13.47
2023-02-08T10:50:44.607Z,14.10
2023-02-08T10:53:13.477Z,13.57
2023-02-08T10:55:39.938Z,12.67
2023-02-08T10:58:06.424Z,12.17
2023-02-08T11:00:37.286Z,11.43
2023-02-08T11:03:12.737Z,12.30
2023-02-08T11:05:40.607Z,12.77
2023-02-08T11:08:08.314Z,12.50
2023-02-08T11:10:35.032Z,12.83
2023-02-08T11:13:04.014Z,12.13
2023-02-08T11:15:33.701Z,9.83
2023-02-08T11:18:00.987Z,9.40
2023-02-08T11:20:36.700Z,10.63
2023-02-08T11:23:04.131Z,10.30
2023-02-08T11:25:35.938Z,8.80
2023-02-08T11:28:02.638Z,10.57
2023-02-08T11:30:29.228Z,10.13
2023-02-08T11:33:14.543Z,7.63
2023-02-08T11:35:41.215Z,7.67
2023-02-08T11:38:15.990Z,8.43
2023-02-08T11:40:46.034Z,8.47
2023-02-08T11:43:22.818Z,7.57
2023-02-08T11:45:49.428Z,8.00
2023-02-08T11:48:21.249Z,6.90
2023-02-08T11:50:50.355Z,8.10
2023-02-08T11:53:23.337Z,8.77
2023-02-08T11:56:19.473Z,9.13
2023-02-08T11:58:56.204Z,8.20
2023-02-08T12:01:23.096Z,8.43
2023-02-08T12:03:50.416Z,8.50
2023-02-08T12:06:40.638Z,9.33
2023-02-08T12:09:08.609Z,9.67
2023-02-08T12:11:42.359Z,10.43
2023-02-08T12:14:20.994Z,10.50
2023-02-08T12:16:57.993Z,9.20
2023-02-08T12:19:27.460Z,10.27
2023-02-08T12:21:57.174Z,9.23
2023-02-08T12:24:33.249Z,8.50
2023-02-08T12:27:02.820Z,8.57
2023-02-08T12:29:46.872Z,9.27
2023-02-08T12:32:23.649Z,8.97
2023-02-08T12:34:50.132Z,8.83
2023-02-08T12:37:41.881Z,9.43
2023-02-08T12:40:30.018Z,9.10
2023-02-08T12:43:02.672Z,9.80
2023-02-08T12:45:35.963Z,10.33
2023-02-08T12:48:05.474Z,10.37
2023-02-08T12:50:34.247Z,10.87
2023-02-08T12:53:01.366Z,9.37
2023-02-08T12:55:34.727Z,9.90
2023-02-08T12:58:16.510Z,10.87
2023-02-08T13:00:43.219Z,10.37
2023-02-08T13:03:12.975Z,9.90
2023-02-08T13:05:41.687Z,10.17
2023-02-08T13:08:14.294Z,9.23
2023-02-08T13:10:40.953Z,10.80
2023-02-08T13:13:12.323Z,10.93
2023-02-08T13:15:40.422Z,10.70
2023-02-08T13:18:15.696Z,10.87
2023-02-08T13:20:42.196Z,10.20
2023-02-08T13:23:14.792Z,10.50
2023-02-08T13:25:41.509Z,11.50
2023-02-08T13:28:11.029Z,12.07
2023-02-08T13:30:39.990Z,13.13
2023-02-08T13:33:17.177Z,11.63
2023-02-08T13:35:43.976Z,12.30
2023-02-08T13:38:24.238Z,11.77
2023-02-08T13:41:01.078Z,12.73
2023-02-08T13:43:36.570Z,11.73
2023-02-08T13:46:04.463Z,13.30
2023-02-08T13:48:40.847Z,12.07
2023-02-08T13:51:08.473Z,13.43
2023-02-08T13:53:38.111Z,13.03
2023-02-08T13:56:11.241Z,14.30
2023-02-08T13:58:50.069Z,13.20
2023-02-08T14:01:23.167Z,13.47
2023-02-08T14:04:12.897Z,12.43
2023-02-08T14:06:49.654Z,13.47
2023-02-08T14:09:28.669Z,12.87
2023-02-08T14:11:58.321Z,13.23
2023-02-08T14:14:25.878Z,13.40
2023-02-08T14:17:04.716Z,14.43
2023-02-08T14:19:34.782Z,13.87
2023-02-08T14:22:01.229Z,13.37
2023-02-08T14:24:49.236Z,13.20
2023-02-08T14:27:20.955Z,14.77
2023-02-08T14:30:02.704Z,15.20
2023-02-08T14:32:30.021Z,13.57
2023-02-08T14:35:01.123Z,12.83
2023-02-08T14:37:28.831Z,14.43
2023-02-08T14:40:14.281Z,13.70
2023-02-08T14:42:53.346Z,13.37
2023-02-08T14:45:46.323Z,13.27
2023-02-08T14:48:20.303Z,13.67
2023-02-08T14:51:10.339Z,14.13
2023-02-08T14:53:53.164Z,12.97
2023-02-08T14:56:24.265Z,14.13
2023-02-08T14:58:57.655Z,14.07
2023-02-08T15:01:27.125Z,14.43
2023-02-08T15:03:58.805Z,14.90
2023-02-08T15:06:30.240Z,14.63
2023-02-08T15:08:56.800Z,15.10
2023-02-08T15:11:30.283Z,14.97
2023-02-08T15:13:59.305Z,14.83
2023-02-08T15:16:37.182Z,14.50
2023-02-08T15:19:04.310Z,15.00
2023-02-08T15:21:32.292Z,16.70
2023-02-08T15:23:59.721Z,15.60
2023-02-08T15:26:26.925Z,16.13
2023-02-08T15:28:53.403Z,15.00
2023-02-08T15:31:21.143Z,15.80
2023-02-08T15:33:47.764Z,16.67
2023-02-08T15:36:18.704Z,17.50
2023-02-08T15:38:45.265Z,14.83
2023-02-08T15:41:13.142Z,19.17
2023-02-08T15:43:39.887Z,19.20
2023-02-08T15:46:07.388Z,21.30
2023-02-08T15:48:33.992Z,22.70
2023-02-08T15:51:00.559Z,25.23
2023-02-08T15:53:27.263Z,19.27
2023-02-08T15:55:54.748Z,17.87
2023-02-08T15:58:28.878Z,16.57
2023-02-08T16:00:56.152Z,16.77
2023-02-08T16:03:25.712Z,17.47
2023-02-08T16:05:54.244Z,17.87
2023-02-08T16:08:28.230Z,18.67
2023-02-08T16:10:59.221Z,20.13
2023-02-08T16:13:32.855Z,21.00
2023-02-08T16:16:19.695Z,19.77
2023-02-08T16:18:52.130Z,18.47
2023-02-08T16:21:24.652Z,17.10
2023-02-08T16:23:52.244Z,18.40
2023-02-08T16:26:28.374Z,22.80
2023-02-08T16:28:55.204Z,21.50
2023-02-08T16:31:26.942Z,21.23
2023-02-08T16:33:57.662Z,20.07
2023-02-08T16:36:31.026Z,21.07
2023-02-08T16:39:16.454Z,20.50
2023-02-08T16:42:14.601Z,19.53
2023-02-08T16:44:42.148Z,20.20
2023-02-08T16:47:24.818Z,21.17
2023-02-08T16:49:51.458Z,22.37
2023-02-08T16:52:17.936Z,23.80
2023-02-08T16:54:44.439Z,23.87
2023-02-08T16:57:11.127Z,23.77
2023-02-08T16:59:37.655Z,24.13
2023-02-08T17:02:06.300Z,22.63
2023-02-08T17:04:34.997Z,21.80
2023-02-08T17:07:01.592Z,22.47
2023-02-08T17:09:28.073Z,22.53
2023-02-08T17:11:54.622Z,22.40
2023-02-08T17:14:21.143Z,21.37
2023-02-08T17:16:47.710Z,22.03
2023-02-08T17:19:16.378Z,21.57
2023-02-08T17:21:42.866Z,21.03
2023-02-08T17:24:09.366Z,20.57
2023-02-08T17:26:37.877Z,20.60
2023-02-08T17:29:04.452Z,21.07
2023-02-08T17:31:31.265Z,19.40
2023-02-08T17:34:06.812Z,19.90
2023-02-08T17:36:33.987Z,21.17
2023-02-08T17:39:00.471Z,18.83
2023-02-08T17:41:27.129Z,21.57
2023-02-08T17:43:55.343Z,21.87
2023-02-08T17:46:22.936Z,20.23
2023-02-08T17:48:49.561Z,22.13
2023-02-08T17:51:17.008Z,21.07
2023-02-08T17:53:43.805Z,21.47
2023-02-08T17:56:11.292Z,24.90
2023-02-08T17:58:38.014Z,23.60
2023-02-08T18:01:04.883Z,24.87
2023-02-08T18:03:31.982Z,23.90
2023-02-08T18:05:58.785Z,24.57
2023-02-08T18:08:25.401Z,24.40
2023-02-08T18:10:52.040Z,23.23
2023-02-08T18:13:18.654Z,22.57
2023-02-08T18:15:45.710Z,23.73
2023-02-08T18:18:13.177Z,22.03
2023-02-08T18:20:43.029Z,22.10
2023-02-08T18:23:09.741Z,22.87
2023-02-08T18:25:36.419Z,23.60
2023-02-08T18:28:02.990Z,23.67
2023-02-08T18:30:29.831Z,24.27
2023-02-08T18:32:56.376Z,24.73
2023-02-08T18:35:22.892Z,25.20
2023-02-08T18:37:50.226Z,28.00
2023-02-08T18:40:16.914Z,26.40
2023-02-08T18:42:43.417Z,28.50
2023-02-08T18:45:10.010Z,29.97
2023-02-08T18:47:36.956Z,30.83
2023-02-08T18:50:03.801Z,31.80
2023-02-08T18:52:31.611Z,32.53
2023-02-08T18:54:58.246Z,31.30
2023-02-08T18:57:24.898Z,28.87
2023-02-08T18:59:54.047Z,34.27
2023-02-08T19:02:21.350Z,33.47
2023-02-08T19:04:48.078Z,29.80
2023-02-08T19:07:14.783Z,28.33
2023-02-08T19:09:41.376Z,28.07
2023-02-08T19:12:08.029Z,28.07
2023-02-08T19:14:34.566Z,28.67
2023-02-08T19:17:02.273Z,29.00
2023-02-08T19:19:28.789Z,29.57
2023-02-08T19:21:55.261Z,32.30
2023-02-08T19:24:21.794Z,31.70
2023-02-08T19:26:48.396Z,30.87
2023-02-08T19:29:15.619Z,29.10
2023-02-08T19:31:42.310Z,31.97
2023-02-08T19:34:09.706Z,31.73
2023-02-08T19:36:38.040Z,30.63
2023-02-08T19:39:04.918Z,29.53
2023-02-08T19:41:38.501Z,30.20
2023-02-08T19:44:05.557Z,29.67
2023-02-08T19:46:33.265Z,29.50
2023-02-08T19:49:01.133Z,30.73
2023-02-08T19:51:28.139Z,32.43
2023-02-08T19:53:56.882Z,33.83
2023-02-08T19:56:23.610Z,32.63
2023-02-08T19:58:50.191Z,32.33
2023-02-08T20:01:17.638Z,30.97
2023-02-08T20:03:44.773Z,28.50
2023-02-08T20:06:16.328Z,28.37
2023-02-08T20:08:43.184Z,27.67
2023-02-08T20:11:17.012Z,27.30
2023-02-08T20:13:43.585Z,27.90
2023-02-08T20:16:10.076Z,29.73
2023-02-08T20:18:36.635Z,30.90
2023-02-08T20:21:03.392Z,30.67
2023-02-08T20:23:30.078Z,32.70
2023-02-08T20:26:10.777Z,35.13
2023-02-08T20:28:38.030Z,33.50
2023-02-08T20:31:08.402Z,43.00
2023-02-08T20:33:35.077Z,42.37
2023-02-08T20:36:05.403Z,41.17
2023-02-08T20:38:32.065Z,40.20
2023-02-08T20:41:02.592Z,42.73
2023-02-08T20:43:29.298Z,40.67
2023-02-08T20:45:55.823Z,40.93
2023-02-08T20:48:22.343Z,40.23
2023-02-08T20:50:48.908Z,40.77
2023-02-08T20:53:15.635Z,38.73
2023-02-08T20:55:42.520Z,40.63
2023-02-08T20:58:09.127Z,38.93
2023-02-08T21:00:48.919Z,38.57
2023-02-08T21:03:15.532Z,38.33
2023-02-08T21:05:42.263Z,38.63
2023-02-08T21:08:09.068Z,35.20
2023-02-08T21:10:36.251Z,37.13
2023-02-08T21:13:02.711Z,37.70
2023-02-08T21:15:29.552Z,35.50
2023-02-08T21:17:56.268Z,32.27
2023-02-08T21:20:22.987Z,32.50
2023-02-08T21:22:49.495Z,34.20
2023-02-08T21:25:16.072Z,31.83
2023-02-08T21:27:42.602Z,30.10
2023-02-08T21:30:09.515Z,33.17
2023-02-08T21:32:36.036Z,30.47
2023-02-08T21:35:02.519Z,29.00
2023-02-08T21:37:29.018Z,27.37
2023-02-08T21:39:55.481Z,27.77
2023-02-08T21:42:22.224Z,30.73
2023-02-08T21:44:48.720Z,26.87
2023-02-08T21:47:15.392Z,26.50
2023-02-08T21:50:00.839Z,25.33
2023-02-08T21:52:46.088Z,24.37
2023-02-08T21:55:12.796Z,26.13
2023-02-08T21:57:41.091Z,26.00
2023-02-08T22:00:08.409Z,27.27
2023-02-08T22:02:34.889Z,28.37
2023-02-08T22:05:03.023Z,27.40
2023-02-08T22:07:29.582Z,27.87
2023-02-08T22:09:56.213Z,28.57
2023-02-08T22:12:22.927Z,29.57
2023-02-08T22:14:49.676Z,30.10
2023-02-08T22:17:16.253Z,31.17
2023-02-08T22:19:42.848Z,29.33
2023-02-08T22:22:09.943Z,31.30
2023-02-08T22:24:37.189Z,32.93
2023-02-08T22:27:03.751Z,32.50
2023-02-08T22:29:30.301Z,34.73
2023-02-08T22:31:57.152Z,34.47
2023-02-08T22:34:26.146Z,38.57
2023-02-08T22:36:52.669Z,38.57
2023-02-08T22:39:19.226Z,36.90
2023-02-08T22:41:45.731Z,39.73
2023-02-08T22:44:12.341Z,38.77
2023-02-08T22:46:38.873Z,38.80
2023-02-08T22:49:05.510Z,42.20
2023-02-08T22:51:32.005Z,40.87
2023-02-08T22:53:58.556Z,42.63
2023-02-08T22:56:25.115Z,41.73
2023-02-08T22:58:51.713Z,42.30
2023-02-08T23:01:18.313Z,45.00
2023-02-08T23:03:45.002Z,43.27
2023-02-08T23:06:12.819Z,43.87
2023-02-08T23:08:39.340Z,44.43
2023-02-08T23:11:05.974Z,41.47
2023-02-08T23:13:32.697Z,43.80
2023-02-08T23:15:59.249Z,43.80
2023-02-08T23:18:25.846Z,44.70
2023-02-08T23:20:53.462Z,44.07
2023-02-08T23:23:20.032Z,44.83
2023-02-08T23:25:47.451Z,42.13
2023-02-08T23:28:14.013Z,41.10
2023-02-08T23:30:41.035Z,38.60
2023-02-08T23:33:07.578Z,41.63
2023-02-08T23:35:34.164Z,44.47
2023-02-08T23:38:00.892Z,42.93
2023-02-08T23:40:27.374Z,43.47
2023-02-08T23:42:53.904Z,40.73
2023-02-08T23:45:20.488Z,42.50
2023-02-08T23:47:46.997Z,42.13
2023-02-08T23:50:13.531Z,44.53
2023-02-08T23:52:40.010Z,44.43
2023-02-08T23:55:06.641Z,45.20
2023-02-08T23:57:33.503Z,45.17
